createdAt,value
2022-11-20T00:01:33.102Z,99922.47
2022-11-20T00:04:01.158Z,99919.20
2022-11-20T00:06:29.725Z,99918.35
2022-11-20T00:08:59.353Z,99916.80
2022-11-20T00:11:28.491Z,99913.71
2022-11-20T00:13:58.343Z,99910.80
2022-11-20T00:16:28.617Z,99910.29
2022-11-20T00:18:56.671Z,99904.46
2022-11-20T00:21:29.656Z,99905.50
2022-11-20T00:23:58.628Z,99912.01
2022-11-20T00:26:29.105Z,99911.48
2022-11-20T00:28:59.421Z,99910.46
2022-11-20T00:31:28.579Z,99917.66
2022-11-20T00:33:56.739Z,99914.41
2022-11-20T00:36:26.918Z,99921.08
2022-11-20T00:38:59.265Z,99923.83
2022-11-20T00:41:29.100Z,99918.69
2022-11-20T00:43:57.660Z,99919.54
2022-11-20T00:46:27.862Z,99917.66
2022-11-20T00:48:56.095Z,99917.65
2022-11-20T00:51:26.615Z,99924.33
2022-11-20T00:53:57.958Z,99925.01
2022-11-20T00:56:26.068Z,99926.39
2022-11-20T00:58:53.812Z,99923.48
2022-11-20T01:02:06.511Z,99926.90
2022-11-20T01:04:34.980Z,99928.94
2022-11-20T01:07:03.121Z,99928.10
2022-11-20T01:09:31.012Z,99929.30
2022-11-20T01:12:00.113Z,99930.33
2022-11-20T01:14:28.085Z,99932.55
2022-11-20T01:16:56.853Z,99929.98
2022-11-20T01:19:26.124Z,99931.70
2022-11-20T01:21:55.644Z,99934.61
2022-11-20T01:24:24.322Z,99931.18
2022-11-20T01:26:53.136Z,99931.34
2022-11-20T01:29:25.404Z,99937.86
2022-11-20T01:31:54.249Z,99932.04
2022-11-20T01:34:23.615Z,99929.48
2022-11-20T01:36:54.280Z,99924.17
2022-11-20T01:39:23.479Z,99926.05
2022-11-20T01:42:11.912Z,99921.78
2022-11-20T01:44:55.209Z,99922.46
2022-11-20T01:47:31.446Z,99923.51
2022-11-20T01:50:19.765Z,99924.88
2022-11-20T01:52:52.644Z,99922.30
2022-11-20T01:55:26.823Z,99921.79
2022-11-20T01:57:55.671Z,99917.67
2022-11-20T02:00:23.830Z,99920.08
2022-11-20T02:02:59.655Z,99920.09
2022-11-20T02:05:42.885Z,99920.41
2022-11-20T02:08:10.884Z,99914.27
2022-11-20T02:10:38.897Z,99912.55
2022-11-20T02:13:25.260Z,99912.90
2022-11-20T02:15:53.481Z,99913.07
2022-11-20T02:18:22.520Z,99912.89
2022-11-20T02:20:56.174Z,99915.61
2022-11-20T02:23:40.464Z,99916.48
2022-11-20T02:26:11.847Z,99918.71
2022-11-20T02:28:40.213Z,99915.80
2022-11-20T02:31:08.707Z,99916.83
2022-11-20T02:33:36.556Z,99912.37
2022-11-20T02:36:04.565Z,99910.16
2022-11-20T02:38:32.708Z,99908.44
2022-11-20T02:41:00.730Z,99907.76
2022-11-20T02:43:28.539Z,99915.63
2022-11-20T02:45:56.384Z,99919.39
2022-11-20T02:48:25.344Z,99918.52
2022-11-20T02:50:53.285Z,99916.48
2022-11-20T02:53:20.985Z,99915.28
2022-11-20T02:55:48.821Z,99921.61
2022-11-20T02:58:16.637Z,99926.90
2022-11-20T03:00:44.338Z,99919.04
2022-11-20T03:03:12.524Z,99918.53
2022-11-20T03:05:40.358Z,99913.23
2022-11-20T03:08:08.090Z,99914.09
2022-11-20T03:10:35.933Z,99913.23
2022-11-20T03:13:03.781Z,99916.81
2022-11-20T03:15:31.497Z,99919.21
2022-11-20T03:17:59.453Z,99921.60
2022-11-20T03:20:27.705Z,99917.48
2022-11-20T03:22:56.172Z,99918.18
2022-11-20T03:25:24.272Z,99914.41
2022-11-20T03:27:52.452Z,99914.41
2022-11-20T03:30:20.129Z,99916.98
2022-11-20T03:32:48.688Z,99916.13
2022-11-20T03:35:16.613Z,99918.00
2022-11-20T03:37:44.370Z,99915.43
2022-11-20T03:40:12.775Z,99914.73
2022-11-20T03:42:46.645Z,99916.45
2022-11-20T03:45:18.665Z,99918.33
2022-11-20T03:47:46.554Z,99917.64
2022-11-20T03:50:14.914Z,99919.54
2022-11-20T03:52:43.433Z,99918.85
2022-11-20T03:55:11.379Z,99917.98
2022-11-20T03:57:39.082Z,99919.36
2022-11-20T04:00:07.570Z,99914.73
2022-11-20T04:02:35.542Z,99916.79
2022-11-20T04:05:03.343Z,99919.19
2022-11-20T04:07:31.147Z,99913.88
2022-11-20T04:09:59.028Z,99921.06
2022-11-20T04:12:26.701Z,99923.62
2022-11-20T04:14:54.696Z,99923.95
2022-11-20T04:17:22.489Z,99924.13
2022-11-20T04:19:50.312Z,99925.83
2022-11-20T04:22:18.187Z,99927.36
2022-11-20T04:24:46.126Z,99928.55
2022-11-20T04:27:13.822Z,99924.29
2022-11-20T04:29:41.832Z,99922.08
2022-11-20T04:32:09.757Z,99922.07
2022-11-20T04:34:37.514Z,99916.27
2022-11-20T04:37:05.348Z,99917.65
2022-11-20T04:39:33.232Z,99914.05
2022-11-20T04:42:20.092Z,99913.04
2022-11-20T04:44:48.002Z,99915.08
2022-11-20T04:47:15.732Z,99914.58
2022-11-20T04:49:43.439Z,99908.75
2022-11-20T04:52:11.574Z,99907.38
2022-11-20T04:54:39.833Z,99903.10
2022-11-20T04:57:11.438Z,99904.11
2022-11-20T04:59:42.423Z,99902.41
2022-11-20T05:02:11.635Z,99897.77
2022-11-20T05:04:39.393Z,99896.59
2022-11-20T05:07:07.225Z,99892.98
2022-11-20T05:09:35.311Z,99892.65
2022-11-20T05:12:03.412Z,99889.92
2022-11-20T05:14:31.530Z,99882.05
2022-11-20T05:16:59.565Z,99885.98
2022-11-20T05:19:27.410Z,99883.07
2022-11-20T05:21:55.374Z,99882.90
2022-11-20T05:24:23.225Z,99880.33
2022-11-20T05:26:51.025Z,99879.81
2022-11-20T05:29:19.309Z,99881.86
2022-11-20T05:31:47.234Z,99880.32
2022-11-20T05:34:14.993Z,99880.84
2022-11-20T05:36:42.960Z,99882.18
2022-11-20T05:39:10.733Z,99878.25
2022-11-20T05:41:38.443Z,99880.29
2022-11-20T05:44:06.550Z,99877.05
2022-11-20T05:46:34.414Z,99879.27
2022-11-20T05:49:02.156Z,99874.16
2022-11-20T05:51:29.970Z,99874.00
2022-11-20T05:53:59.522Z,99871.95
2022-11-20T05:56:27.235Z,99868.20
2022-11-20T05:58:55.386Z,99863.41
2022-11-20T06:01:25.694Z,99864.77
2022-11-20T06:03:54.590Z,99863.58
2022-11-20T06:06:23.492Z,99862.04
2022-11-20T06:08:51.256Z,99863.23
2022-11-20T06:11:19.647Z,99866.98
2022-11-20T06:13:48.232Z,99864.41
2022-11-20T06:16:18.882Z,99868.52
2022-11-20T06:18:47.585Z,99869.36
2022-11-20T06:21:21.553Z,99866.45
2022-11-20T06:23:50.937Z,99868.17
2022-11-20T06:26:21.584Z,99859.63
2022-11-20T06:28:49.726Z,99856.54
2022-11-20T06:31:20.080Z,99854.83
2022-11-20T06:33:49.130Z,99854.66
2022-11-20T06:36:19.680Z,99857.75
2022-11-20T06:38:47.512Z,99855.35
2022-11-20T06:41:21.394Z,99850.39
2022-11-20T06:43:49.877Z,99851.41
2022-11-20T06:46:19.220Z,99851.43
2022-11-20T06:48:48.094Z,99850.93
2022-11-20T06:51:16.234Z,99850.41
2022-11-20T06:53:44.423Z,99847.34
2022-11-20T06:56:12.209Z,99848.89
2022-11-20T06:58:39.907Z,99857.10
2022-11-20T07:01:11.213Z,99854.20
2022-11-20T07:03:39.405Z,99861.73
2022-11-20T07:06:07.494Z,99863.63
2022-11-20T07:08:36.026Z,99862.08
2022-11-20T07:11:07.041Z,99859.86
2022-11-20T07:13:35.405Z,99863.11
2022-11-20T07:16:05.810Z,99859.68
2022-11-20T07:18:34.170Z,99855.23
2022-11-20T07:21:07.954Z,99852.33
2022-11-20T07:23:36.298Z,99851.48
2022-11-20T07:26:08.933Z,99843.77
2022-11-20T07:28:38.231Z,99843.41
2022-11-20T07:31:07.866Z,99843.24
2022-11-20T07:33:35.923Z,99841.71
2022-11-20T07:36:04.346Z,99846.30
2022-11-20T07:38:32.022Z,99843.39
2022-11-20T07:41:02.577Z,99842.88
2022-11-20T07:43:31.242Z,99844.75
2022-11-20T07:46:00.597Z,99842.17
2022-11-20T07:48:28.299Z,99836.49
2022-11-20T07:50:59.329Z,99831.88
2022-11-20T07:53:26.999Z,99826.04
2022-11-20T07:55:54.921Z,99827.55
2022-11-20T07:58:23.425Z,99827.72
2022-11-20T08:00:51.401Z,99829.92
2022-11-20T08:03:24.374Z,99824.59
2022-11-20T08:05:52.807Z,99823.70
2022-11-20T08:08:21.100Z,99820.07
2022-11-20T08:10:48.785Z,99824.83
2022-11-20T08:13:35.248Z,99826.17
2022-11-20T08:16:03.080Z,99824.92
2022-11-20T08:18:32.700Z,99817.31
2022-11-20T08:21:05.230Z,99815.54
2022-11-20T08:23:33.391Z,99811.70
2022-11-20T08:26:01.066Z,99808.37
2022-11-20T08:28:28.831Z,99804.02
2022-11-20T08:31:01.491Z,99803.27
2022-11-20T08:33:30.054Z,99798.23
2022-11-20T08:36:02.386Z,99798.86
2022-11-20T08:38:31.028Z,99799.33
2022-11-20T08:41:18.686Z,99798.05
2022-11-20T08:43:47.251Z,99796.93
2022-11-20T08:46:15.400Z,99794.63
2022-11-20T08:48:43.458Z,99792.66
2022-11-20T08:51:12.421Z,99790.02
2022-11-20T08:53:41.788Z,99795.77
2022-11-20T08:56:10.746Z,99796.71
2022-11-20T08:59:09.762Z,99795.27
2022-11-20T09:01:30.127Z,99792.40
2022-11-20T09:03:58.287Z,99789.55
2022-11-20T09:06:26.880Z,99787.74
2022-11-20T09:08:55.659Z,99784.01
2022-11-20T09:11:23.970Z,99781.18
2022-11-20T09:13:51.779Z,99776.65
2022-11-20T09:16:19.908Z,99779.13
2022-11-20T09:18:53.927Z,99779.66
2022-11-20T09:21:30.064Z,99776.09
2022-11-20T09:23:57.808Z,99775.98
2022-11-20T09:26:25.489Z,99780.31
2022-11-20T09:28:56.964Z,99776.05
2022-11-20T09:31:27.249Z,99771.23
2022-11-20T09:33:55.529Z,99769.91
2022-11-20T09:36:23.300Z,99772.39
2022-11-20T09:38:51.210Z,99767.44
2022-11-20T09:41:50.792Z,99762.52
2022-11-20T09:44:33.945Z,99758.59
2022-11-20T09:47:21.201Z,99750.20
2022-11-20T09:50:06.239Z,99749.75
2022-11-20T09:53:04.000Z,99748.83
2022-11-20T09:55:32.197Z,99746.60
2022-11-20T09:58:00.612Z,99740.80
2022-11-20T10:00:30.510Z,99741.30
2022-11-20T10:03:15.868Z,99742.88
2022-11-20T10:05:47.432Z,99742.92
2022-11-20T10:08:18.286Z,99736.46
2022-11-20T10:10:52.616Z,99733.07
2022-11-20T10:13:48.199Z,99736.02
2022-11-20T10:16:41.009Z,99730.71
2022-11-20T10:19:22.111Z,99725.75
2022-11-20T10:22:13.969Z,99718.92
2022-11-20T10:24:58.334Z,99712.05
2022-11-20T10:27:48.209Z,99710.56
2022-11-20T10:30:21.259Z,99702.69
2022-11-20T10:32:59.584Z,99703.58
2022-11-20T10:35:37.409Z,99693.77
2022-11-20T10:38:13.924Z,99695.54
2022-11-20T10:40:44.254Z,99700.73
2022-11-20T10:43:20.235Z,99701.99
2022-11-20T10:46:13.643Z,99701.69
2022-11-20T10:48:44.975Z,99699.06
2022-11-20T10:51:43.707Z,99698.04
2022-11-20T10:54:44.437Z,99689.45
2022-11-20T10:57:41.376Z,99683.13
2022-11-20T11:00:13.413Z,99682.62
2022-11-20T11:02:48.804Z,99678.84
2022-11-20T11:05:42.057Z,99674.89
2022-11-20T11:08:20.696Z,99673.67
2022-11-20T11:10:51.568Z,99670.73
2022-11-20T11:13:27.648Z,99664.79
2022-11-20T11:15:56.606Z,99663.84
2022-11-20T11:18:25.849Z,99661.86
2022-11-20T11:20:55.728Z,99654.94
2022-11-20T11:23:31.621Z,99652.19
2022-11-20T11:26:01.990Z,99651.02
2022-11-20T11:28:30.036Z,99647.21
2022-11-20T11:30:57.991Z,99646.04
2022-11-20T11:33:28.169Z,99640.16
2022-11-20T11:35:59.538Z,99634.27
2022-11-20T11:38:35.848Z,99632.95
2022-11-20T11:41:05.378Z,99626.70
2022-11-20T11:43:56.531Z,99620.29
2022-11-20T11:46:33.608Z,99618.41
2022-11-20T11:49:23.254Z,99618.48
2022-11-20T11:52:10.081Z,99612.38
2022-11-20T11:54:58.741Z,99607.79
2022-11-20T11:57:50.941Z,99607.02
2022-11-20T12:00:23.548Z,99601.65
2022-11-20T12:03:16.284Z,99597.98
2022-11-20T12:05:52.159Z,99593.30
2022-11-20T12:08:45.986Z,99593.44
2022-11-20T12:11:17.170Z,99598.19
2022-11-20T12:13:55.361Z,99589.79
2022-11-20T12:16:23.969Z,99587.14
2022-11-20T12:18:53.617Z,99588.27
2022-11-20T12:21:24.858Z,99587.17
2022-11-20T12:24:43.089Z,99583.54
2022-11-20T12:27:29.694Z,99584.98
2022-11-20T12:30:14.893Z,99580.35
2022-11-20T12:33:03.461Z,99579.11
2022-11-20T12:36:09.002Z,99580.10
2022-11-20T12:39:03.594Z,99583.76
2022-11-20T12:42:14.380Z,99579.70
2022-11-20T12:45:12.944Z,99575.23
2022-11-20T12:48:17.578Z,99573.44
2022-11-20T12:51:13.824Z,99572.17
2022-11-20T12:53:51.655Z,99570.64
2022-11-20T12:57:02.331Z,99565.23
2022-11-20T12:59:59.389Z,99561.80
2022-11-20T13:02:36.669Z,99559.38
2022-11-20T13:05:13.752Z,99553.12
2022-11-20T13:07:44.245Z,99545.24
2022-11-20T13:10:22.999Z,99540.39
2022-11-20T13:13:02.612Z,99540.10
2022-11-20T13:15:56.212Z,99531.38
2022-11-20T13:18:24.553Z,99526.41
2022-11-20T13:20:53.071Z,99521.03
2022-11-20T13:23:26.188Z,99517.59
2022-11-20T13:26:21.467Z,99513.84
2022-11-20T13:29:12.040Z,99509.08
2022-11-20T13:31:44.801Z,99509.98
2022-11-20T13:34:26.881Z,99502.80
2022-11-20T13:36:57.114Z,99501.76
2022-11-20T13:39:31.298Z,99502.38
2022-11-20T13:42:19.823Z,99505.15
2022-11-20T13:45:02.648Z,99505.84
2022-11-20T13:47:30.620Z,99506.16
2022-11-20T13:50:00.323Z,99499.09
2022-11-20T13:52:37.168Z,99496.62
2022-11-20T13:55:26.570Z,99488.96
2022-11-20T13:58:00.162Z,99494.44
2022-11-20T14:00:28.052Z,99496.23
2022-11-20T14:03:18.346Z,99498.08
2022-11-20T14:06:01.857Z,99497.73
2022-11-20T14:08:51.758Z,99503.77
2022-11-20T14:11:22.299Z,99495.80
2022-11-20T14:14:04.143Z,99493.63
2022-11-20T14:16:35.079Z,99485.25
2022-11-20T14:19:21.868Z,99482.91
2022-11-20T14:21:53.362Z,99485.84
2022-11-20T14:24:24.037Z,99483.92
2022-11-20T14:26:53.242Z,99478.73
2022-11-20T14:29:28.027Z,99475.49
2022-11-20T14:31:57.846Z,99478.54
2022-11-20T14:34:28.865Z,99480.84
2022-11-20T14:37:02.728Z,99486.02
2022-11-20T14:39:35.623Z,99486.25
2022-11-20T14:42:15.544Z,99481.86
2022-11-20T14:44:44.210Z,99484.86
2022-11-20T14:47:14.161Z,99483.02
2022-11-20T14:49:42.560Z,99483.28
2022-11-20T14:52:22.088Z,99483.05
2022-11-20T14:54:49.736Z,99477.67
2022-11-20T14:57:35.006Z,99476.04
2022-11-20T15:00:24.495Z,99467.48
2022-11-20T15:02:53.177Z,99470.10
2022-11-20T15:05:24.555Z,99472.47
2022-11-20T15:08:06.928Z,99473.52
2022-11-20T15:10:35.557Z,99474.82
2022-11-20T15:13:13.522Z,99476.33
2022-11-20T15:15:44.523Z,99474.73
2022-11-20T15:18:18.717Z,99478.61
2022-11-20T15:20:47.049Z,99481.02
2022-11-20T15:23:20.119Z,99483.58
2022-11-20T15:25:49.524Z,99483.44
2022-11-20T15:28:20.995Z,99481.42
2022-11-20T15:30:50.422Z,99483.11
2022-11-20T15:33:18.709Z,99486.92
2022-11-20T15:35:46.609Z,99484.45
2022-11-20T15:38:14.600Z,99482.57
2022-11-20T15:40:42.601Z,99483.85
2022-11-20T15:43:13.594Z,99484.80
2022-11-20T15:45:53.980Z,99483.69
2022-11-20T15:48:48.196Z,99488.24
2022-11-20T15:51:28.199Z,99487.33
2022-11-20T15:53:56.363Z,99486.54
2022-11-20T15:56:25.118Z,99485.73
2022-11-20T15:58:53.173Z,99481.61
2022-11-20T16:01:23.094Z,99486.77
2022-11-20T16:03:50.993Z,99490.22
2022-11-20T16:06:18.794Z,99488.48
2022-11-20T16:08:47.113Z,99486.73
2022-11-20T16:11:17.117Z,99488.98
2022-11-20T16:14:03.708Z,99486.99
2022-11-20T16:16:34.291Z,99481.95
2022-11-20T16:19:02.017Z,99479.02
2022-11-20T16:21:33.150Z,99479.96
2022-11-20T16:24:06.478Z,99479.41
2022-11-20T16:26:34.678Z,99482.65
2022-11-20T16:29:04.253Z,99480.52
2022-11-20T16:31:32.561Z,99480.10
2022-11-20T16:34:05.885Z,99476.41
2022-11-20T16:36:41.035Z,99475.55
2022-11-20T16:39:08.799Z,99470.55
2022-11-20T16:41:37.337Z,99470.97
2022-11-20T16:44:11.068Z,99468.08
2022-11-20T16:46:40.786Z,99471.23
2022-11-20T16:49:13.594Z,99476.97
2022-11-20T16:51:41.796Z,99472.52
2022-11-20T16:54:10.745Z,99479.98
2022-11-20T16:56:39.506Z,99474.52
2022-11-20T16:59:07.536Z,99473.39
2022-11-20T17:01:38.724Z,99477.94
2022-11-20T17:04:07.496Z,99477.32
2022-11-20T17:06:39.015Z,99474.08
2022-11-20T17:09:09.721Z,99478.42
2022-11-20T17:11:37.905Z,99478.86
2022-11-20T17:14:09.244Z,99478.58
2022-11-20T17:16:38.178Z,99479.65
2022-11-20T17:19:06.131Z,99482.61
2022-11-20T17:21:38.149Z,99484.77
2022-11-20T17:24:11.233Z,99486.73
2022-11-20T17:26:41.292Z,99490.59
2022-11-20T17:29:13.080Z,99495.95
2022-11-20T17:31:42.048Z,99496.16
2022-11-20T17:34:15.387Z,99504.84
2022-11-20T17:36:45.801Z,99505.98
2022-11-20T17:39:15.165Z,99507.30
2022-11-20T17:41:44.362Z,99507.17
2022-11-20T17:44:14.242Z,99509.08
2022-11-20T17:46:41.989Z,99507.89
2022-11-20T17:49:09.668Z,99510.67
2022-11-20T17:51:37.613Z,99516.04
2022-11-20T17:54:07.578Z,99514.23
2022-11-20T17:56:54.644Z,99505.90
2022-11-20T17:59:22.822Z,99500.34
2022-11-20T18:01:50.601Z,99498.16
2022-11-20T18:04:18.331Z,99493.21
2022-11-20T18:06:46.392Z,99489.46
2022-11-20T18:09:14.105Z,99495.02
2022-11-20T18:11:43.297Z,99487.66
2022-11-20T18:14:29.210Z,99485.51
2022-11-20T18:17:02.291Z,99483.31
2022-11-20T18:19:33.456Z,99479.06
2022-11-20T18:22:04.304Z,99476.67
2022-11-20T18:24:33.507Z,99476.71
2022-11-20T18:27:02.057Z,99471.94
2022-11-20T18:29:31.191Z,99470.95
2022-11-20T18:31:59.890Z,99469.46
2022-11-20T18:34:27.734Z,99473.46
2022-11-20T18:36:55.588Z,99474.70
2022-11-20T18:39:24.175Z,99479.56
2022-11-20T18:42:10.642Z,99484.77
2022-11-20T18:44:56.810Z,99493.38
2022-11-20T18:47:28.491Z,99496.93
2022-11-20T18:50:00.015Z,99502.35
2022-11-20T18:52:37.844Z,99504.70
2022-11-20T18:55:06.689Z,99504.36
2022-11-20T18:57:34.820Z,99504.91
2022-11-20T19:00:08.850Z,99505.92
2022-11-20T19:05:25.824Z,99492.95
2022-11-20T19:07:53.869Z,99491.14
2022-11-20T19:10:24.353Z,99487.81
2022-11-20T19:12:52.221Z,99486.09
2022-11-20T19:15:20.348Z,99489.70
2022-11-20T19:17:48.108Z,99490.39
2022-11-20T19:20:16.035Z,99488.84
2022-11-20T19:22:45.838Z,99488.16
2022-11-20T19:25:13.441Z,99489.19
2022-11-20T19:27:41.251Z,99489.19
2022-11-20T19:30:10.214Z,99493.66
2022-11-20T19:32:38.187Z,99494.70
2022-11-20T19:35:06.695Z,99495.20
2022-11-20T19:37:35.229Z,99494.17
2022-11-20T19:40:04.774Z,99490.23
2022-11-20T19:42:32.662Z,99490.21
2022-11-20T19:45:00.563Z,99491.54
2022-11-20T19:47:46.379Z,99485.67
2022-11-20T19:50:16.883Z,99493.45
2022-11-20T19:52:44.673Z,99495.27
2022-11-20T19:55:12.416Z,99499.01
2022-11-20T19:57:40.341Z,99499.48
2022-11-20T20:00:08.712Z,99500.45
2022-11-20T20:02:36.471Z,99505.02
2022-11-20T20:05:04.803Z,99508.27
2022-11-20T20:07:32.497Z,99512.17
2022-11-20T20:10:00.262Z,99513.46
2022-11-20T20:12:28.171Z,99516.52
2022-11-20T20:14:55.823Z,99520.97
2022-11-20T20:17:23.519Z,99525.98
2022-11-20T20:19:51.487Z,99527.95
2022-11-20T20:22:19.172Z,99530.82
2022-11-20T20:24:46.920Z,99529.08
2022-11-20T20:27:14.960Z,99527.31
2022-11-20T20:29:42.750Z,99526.39
2022-11-20T20:32:10.516Z,99528.42
2022-11-20T20:34:38.941Z,99527.38
2022-11-20T20:37:06.599Z,99527.98
2022-11-20T20:39:34.254Z,99529.92
2022-11-20T20:42:02.346Z,99524.51
2022-11-20T20:44:48.600Z,99521.66
2022-11-20T20:47:16.481Z,99514.50
2022-11-20T20:49:44.198Z,99513.71
2022-11-20T20:52:11.884Z,99513.42
2022-11-20T20:54:42.269Z,99512.79
2022-11-20T20:57:09.935Z,99511.79
2022-11-20T20:59:38.113Z,99510.09
2022-11-20T21:02:06.087Z,99512.01
2022-11-20T21:04:34.016Z,99504.80
2022-11-20T21:07:01.740Z,99500.20
2022-11-20T21:09:29.816Z,99502.65
2022-11-20T21:11:57.595Z,99499.78
2022-11-20T21:14:25.599Z,99497.23
2022-11-20T21:16:53.875Z,99500.89
2022-11-20T21:19:21.632Z,99503.00
2022-11-20T21:22:03.457Z,99505.11
2022-11-20T21:24:34.014Z,99504.63
2022-11-20T21:27:03.995Z,99504.83
2022-11-20T21:29:32.526Z,99498.02
2022-11-20T21:32:00.412Z,99502.80
2022-11-20T21:34:28.182Z,99498.02
2022-11-20T21:36:56.190Z,99495.81
2022-11-20T21:39:24.040Z,99503.90
2022-11-20T21:41:51.699Z,99501.74
2022-11-20T21:44:35.339Z,99498.84
2022-11-20T21:47:03.099Z,99489.10
2022-11-20T21:49:31.274Z,99493.39
2022-11-20T21:51:59.106Z,99490.98
2022-11-20T21:54:27.035Z,99487.71
2022-11-20T21:56:55.223Z,99486.00
2022-11-20T21:59:23.578Z,99481.71
2022-11-20T22:01:51.361Z,99480.17
2022-11-20T22:04:20.216Z,99487.72
2022-11-20T22:06:48.778Z,99493.23
2022-11-20T22:09:16.777Z,99493.88
2022-11-20T22:11:45.327Z,99485.47
2022-11-20T22:14:22.047Z,99482.89
2022-11-20T22:16:52.315Z,99476.20
2022-11-20T22:19:21.349Z,99474.33
2022-11-20T22:21:52.478Z,99472.44
2022-11-20T22:24:22.444Z,99469.19
2022-11-20T22:26:50.531Z,99475.17
2022-11-20T22:29:21.010Z,99476.02
2022-11-20T22:31:52.303Z,99471.93
2022-11-20T22:34:20.256Z,99476.42
2022-11-20T22:36:48.205Z,99484.15
2022-11-20T22:39:16.546Z,99484.36
2022-11-20T22:41:44.267Z,99483.03
2022-11-20T22:44:15.959Z,99478.77
2022-11-20T22:46:44.139Z,99481.71
2022-11-20T22:49:11.837Z,99481.89
2022-11-20T22:51:41.324Z,99478.61
2022-11-20T22:54:12.186Z,99477.21
2022-11-20T22:56:40.859Z,99476.88
2022-11-20T22:59:08.805Z,99470.56
2022-11-20T23:01:37.737Z,99474.70
2022-11-20T23:04:09.112Z,99479.21
2022-11-20T23:06:37.458Z,99474.15
2022-11-20T23:09:06.730Z,99467.54
2022-11-20T23:11:35.628Z,99464.70
2022-11-20T23:14:12.284Z,99460.31
2022-11-20T23:16:40.315Z,99457.29
2022-11-20T23:19:10.769Z,99454.60
2022-11-20T23:21:41.478Z,99453.41
2022-11-20T23:24:10.696Z,99449.30
2022-11-20T23:26:40.550Z,99445.19
2022-11-20T23:29:09.005Z,99435.08
2022-11-20T23:31:37.169Z,99432.94
2022-11-20T23:34:04.955Z,99436.86
2022-11-20T23:36:33.219Z,99432.06
2022-11-20T23:39:01.116Z,99431.96
2022-11-20T23:41:29.020Z,99418.98
2022-11-20T23:43:56.922Z,99417.48
2022-11-20T23:46:24.785Z,99420.65
2022-11-20T23:48:52.691Z,99418.11
2022-11-20T23:51:20.682Z,99422.09
2022-11-20T23:53:48.494Z,99426.57
2022-11-20T23:56:16.393Z,99426.43
2022-11-20T23:58:44.283Z,99425.77
